Terminal Aerodrome Forecast
Issued by NWS

Home | Current Version | Previous Version | Text Only | Print | Product List | Glossary Off
Versions: 1 2 3 4 5 6 7 8 9 10 11 12 13 14 15 16 17 18 19 20

000
FTUS43 KMPX 231300 AAA
TAFRNH
TAF AMD
KRNH 231300Z 2313/2412 02010KT P6SM OVC012
      TEMPO 2313/2315 4SM -SNDZ OVC008
     FM231500 02010KT 1SM -SN BR OVC004
     FM232000 35010KT 4SM -SN OVC006
     FM240400 34010KT 6SM BR OVC006=

USA.gov is the U.S. government's official web portal to all federal, state and local government web resources and services.